Time;durP1;ratioP1;P1;durP2;ratioP2;P2;SDS_P1;SDS_P2;PMS_P1;PMS_P2;Temp;Humidity;BMP_temperature;BMP_pressure;BME280_temperature;BME280_humidity;BME280_pressure;Samples;Min_cycle;Max_cycle;Signal;HPM_P1;HPM_P2
2023/08/02 00:01:56;;;;;;;;;;;;;;;24.17;63.72;96187.98;617023;230;66838;-62
2023/08/02 00:04:23;;;;;;;;;;;;;;;24.18;65.26;96184.21;616982;230;64604;-61
2023/08/02 00:06:51;;;;;;;;;;;;;;;24.17;64.94;96184.51;617020;230;67225;-62
2023/08/02 00:09:18;;;;;;;;;;;;;;;24.17;64.92;96184.51;617078;230;66783;-62
2023/08/02 00:11:46;;;;;;;;;;;;;;;24.15;63.61;96182.94;616947;229;62766;-62
2023/08/02 00:14:13;;;;;;;;;;;;;;;24.15;63.06;96174.88;617031;230;66701;-62
2023/08/02 00:16:41;;;;;;;;;;;;;;;24.15;63.89;96177.57;617023;230;64681;-62
2023/08/02 00:19:08;;;;;;;;;;;;;;;24.17;64.66;96184.51;616992;230;64718;-62
2023/08/02 00:21:36;;;;;;;;;;;;;;;24.16;64.43;96178.36;617057;230;67260;-62
2023/08/02 00:24:03;;;;;;;;;;;;;;;24.15;64.00;96185.62;616995;230;67025;-62
2023/08/02 00:26:31;;;;;;;;;;;;;;;24.15;64.39;96182.16;616930;230;64774;-62
2023/08/02 00:28:58;;;;;;;;;;;;;;;24.15;66.12;96182.94;616948;227;67224;-62
2023/08/02 00:31:26;;;;;;;;;;;;;;;24.15;66.41;96174.88;616987;230;66923;-64
2023/08/02 00:33:54;;;;;;;;;;;;;;;24.15;67.01;96179.47;617030;230;63505;-64
2023/08/02 00:36:21;;;;;;;;;;;;;;;24.15;66.99;96182.94;617005;230;64712;-64
2023/08/02 00:38:49;;;;;;;;;;;;;;;24.16;67.00;96178.36;616995;230;65546;-64
2023/08/02 00:41:16;;;;;;;;;;;;;;;24.15;67.07;96180.25;616911;230;64918;-64
2023/08/02 00:43:45;;;;;;;;;;;;;;;24.15;67.12;96168.73;617001;230;64574;-64
2023/08/02 00:46:14;;;;;;;;;;;;;;;24.14;66.00;96178.69;616999;230;66613;-64
2023/08/02 00:48:43;;;;;;;;;;;;;;;24.13;66.06;96174.40;617026;230;63239;-61
2023/08/02 00:51:19;;;;;;;;;;;;;;;24.14;66.10;96173.31;616993;230;64825;-61
2023/08/02 00:53:43;;;;;;;;;;;;;;;24.12;66.16;96172.83;616577;230;65291;-62
2023/08/02 00:56:11;;;;;;;;;;;;;;;24.13;65.94;96178.98;616979;230;64887;-62
2023/08/02 00:58:39;;;;;;;;;;;;;;;24.13;66.53;96177.08;616976;230;67176;-62
2023/08/02 01:01:07;;;;;;;;;;;;;;;24.12;66.87;96175.51;617067;230;66854;-62
2023/08/02 01:03:39;;;;;;;;;;;;;;;24.12;66.47;96167.45;617005;230;62759;-62
2023/08/02 01:06:21;;;;;;;;;;;;;;;24.13;66.56;96179.77;616988;230;67394;-61
2023/08/02 01:08:50;;;;;;;;;;;;;;;24.12;66.94;96175.51;617001;230;66980;-62
2023/08/02 01:11:19;;;;;;;;;;;;;;;24.12;67.22;96180.88;616987;229;64529;-64
2023/08/02 01:13:48;;;;;;;;;;;;;;;24.12;66.90;96172.83;616869;230;65543;-64
2023/08/02 01:16:17;;;;;;;;;;;;;;;24.12;66.48;96183.56;617070;230;67357;-64
2023/08/02 01:18:45;;;;;;;;;;;;;;;24.11;66.23;96181.97;616958;230;64762;-64
2023/08/02 01:21:13;;;;;;;;;;;;;;;24.11;65.49;96179.28;617026;230;67337;-64
2023/08/02 01:23:40;;;;;;;;;;;;;;;24.11;65.84;96176.59;617017;230;66850;-64
2023/08/02 01:26:07;;;;;;;;;;;;;;;24.12;66.34;96177.41;617007;230;65529;-64
2023/08/02 01:28:37;;;;;;;;;;;;;;;24.11;65.75;96179.28;617054;230;67266;-64
2023/08/02 01:31:05;;;;;;;;;;;;;;;24.11;66.30;96181.17;616515;230;67001;-64
2023/08/02 01:33:35;;;;;;;;;;;;;;;24.11;66.61;96176.59;617019;230;62342;-64
2023/08/02 01:36:02;;;;;;;;;;;;;;;24.11;66.56;96173.91;617019;230;68068;-64
2023/08/02 01:38:30;;;;;;;;;;;;;;;24.11;66.32;96176.59;617001;230;66850;-64
2023/08/02 01:40:58;;;;;;;;;;;;;;;24.11;67.15;96179.28;617052;230;62344;-64
2023/08/02 01:43:25;;;;;;;;;;;;;;;24.11;66.71;96165.86;617025;230;67263;-64
2023/08/02 01:45:52;;;;;;;;;;;;;;;24.10;66.44;96163.50;617029;230;66783;-64
2023/08/02 01:48:22;;;;;;;;;;;;;;;24.10;66.28;96179.61;617001;230;64962;-64
2023/08/02 01:50:49;;;;;;;;;;;;;;;24.11;66.85;96170.44;616986;230;67229;-64
2023/08/02 01:53:17;;;;;;;;;;;;;;;24.10;66.79;96175.02;617035;230;64738;-64
2023/08/02 01:55:44;;;;;;;;;;;;;;;24.10;66.72;96172.34;617058;230;62489;-64
2023/08/02 01:58:12;;;;;;;;;;;;;;;24.09;66.60;96173.45;616989;230;65075;-64
2023/08/02 02:00:39;;;;;;;;;;;;;;;24.10;66.51;96171.55;617063;230;64612;-64
2023/08/02 02:03:08;;;;;;;;;;;;;;;24.10;66.37;96176.92;617008;230;65237;-64
2023/08/02 02:05:35;;;;;;;;;;;;;;;24.10;66.31;96176.92;617012;230;64714;-64
2023/08/02 02:08:03;;;;;;;;;;;;;;;24.09;66.69;96173.45;617031;230;65068;-64
2023/08/02 02:10:30;;;;;;;;;;;;;;;24.10;66.78;96176.92;616997;230;65508;-64
2023/08/02 02:12:58;;;;;;;;;;;;;;;24.10;67.00;96179.61;616961;229;64899;-64
2023/08/02 02:15:25;;;;;;;;;;;;;;;24.10;67.31;96184.98;617031;230;67047;-64
2023/08/02 02:17:53;;;;;;;;;;;;;;;24.10;67.19;96176.92;617024;230;65323;-64
2023/08/02 02:20:21;;;;;;;;;;;;;;;24.09;66.69;96183.37;617067;230;66987;-64
2023/08/02 02:22:48;;;;;;;;;;;;;;;24.09;67.22;96178.82;617000;230;64463;-64
2023/08/02 02:25:16;;;;;;;;;;;;;;;24.09;67.12;96183.37;616985;230;64875;-62
2023/08/02 02:27:43;;;;;;;;;;;;;;;24.08;66.17;96181.80;616988;230;66820;-62
2023/08/02 02:30:11;;;;;;;;;;;;;;;24.08;66.19;96190.64;617872;227;66950;-62
2023/08/02 02:32:39;;;;;;;;;;;;;;;24.08;66.61;96193.33;624017;227;64556;-62
2023/08/02 02:35:07;;;;;;;;;;;;;;;24.09;66.49;96191.42;624073;227;67249;-62
2023/08/02 02:37:35;;;;;;;;;;;;;;;24.09;67.52;96188.74;624087;227;67090;-61
2023/08/02 02:40:02;;;;;;;;;;;;;;;24.09;67.03;96188.74;624085;227;65622;-62
2023/08/02 02:42:29;;;;;;;;;;;;;;;24.07;66.34;96186.39;624077;227;67182;-62
2023/08/02 02:44:57;;;;;;;;;;;;;;;24.08;66.52;96187.95;624143;227;67185;-62
2023/08/02 02:47:24;;;;;;;;;;;;;;;24.08;66.70;96193.33;624082;227;64786;-62
2023/08/02 02:49:52;;;;;;;;;;;;;;;24.07;66.91;96189.06;624107;227;67338;-62
2023/08/02 02:52:19;;;;;;;;;;;;;;;24.09;66.92;96194.11;624068;227;66980;-62
2023/08/02 02:54:47;;;;;;;;;;;;;;;24.07;66.29;96197.13;624080;227;64874;-62
2023/08/02 02:57:15;;;;;;;;;;;;;;;24.07;66.77;96202.48;624039;227;67882;-62
2023/08/02 02:59:42;;;;;;;;;;;;;;;24.07;66.72;96205.17;624157;227;64943;-62
2023/08/02 03:02:12;;;;;;;;;;;;;;;24.08;66.65;96208.64;624081;227;63624;-62
2023/08/02 03:04:39;;;;;;;;;;;;;;;24.08;67.16;96204.06;623794;227;67182;-61
2023/08/02 03:07:07;;;;;;;;;;;;;;;24.07;67.04;96201.70;624090;227;67058;-62
2023/08/02 03:09:34;;;;;;;;;;;;;;;24.06;66.70;96200.92;624082;227;62593;-62
2023/08/02 03:12:02;;;;;;;;;;;;;;;24.07;66.89;96199.02;623350;227;64975;-62
2023/08/02 03:14:29;;;;;;;;;;;;;;;24.06;66.34;96206.28;622015;228;65437;-61
2023/08/02 03:16:56;;;;;;;;;;;;;;;24.07;66.71;96202.48;621990;228;64793;-61
2023/08/02 03:19:24;;;;;;;;;;;;;;;24.07;67.51;96204.39;621885;228;66913;-62
2023/08/02 03:21:51;;;;;;;;;;;;;;;24.06;66.44;96197.42;621980;228;67392;-61
2023/08/02 03:24:19;;;;;;;;;;;;;;;24.06;66.23;96198.23;622030;228;64836;-62
2023/08/02 03:26:47;;;;;;;;;;;;;;;24.06;66.32;96203.60;621983;228;65150;-62
2023/08/02 03:29:14;;;;;;;;;;;;;;;24.07;66.31;96215.91;622001;228;66803;-62
2023/08/02 03:31:43;;;;;;;;;;;;;;;24.06;66.27;96210.84;621984;228;64712;-62
2023/08/02 03:34:11;;;;;;;;;;;;;;;24.04;65.43;96219.22;621980;228;64395;-61
2023/08/02 03:36:42;;;;;;;;;;;;;;;24.05;66.72;96210.05;622056;228;64900;-61
2023/08/02 03:39:08;;;;;;;;;;;;;;;24.06;66.50;96216.20;621948;228;64952;-62
2023/08/02 03:41:35;;;;;;;;;;;;;;;24.06;67.32;96222.39;622005;228;64505;-62
2023/08/02 03:44:02;;;;;;;;;;;;;;;24.05;67.15;96218.11;621997;228;64833;-62
2023/08/02 03:46:30;;;;;;;;;;;;;;;24.06;66.88;96218.89;621927;227;64638;-62
2023/08/02 03:48:58;;;;;;;;;;;;;;;24.05;67.65;96223.47;622035;228;67437;-62
2023/08/02 03:51:27;;;;;;;;;;;;;;;24.05;66.95;96222.69;622006;228;67072;-62
2023/08/02 03:53:54;;;;;;;;;;;;;;;24.04;66.58;96216.53;621975;228;62689;-61
2023/08/02 03:56:22;;;;;;;;;;;;;;;24.05;66.81;96220.00;622005;228;67218;-62
2023/08/02 03:58:49;;;;;;;;;;;;;;;24.06;66.53;96216.20;621982;228;64929;-62
2023/08/02 04:01:17;;;;;;;;;;;;;;;24.05;67.03;96220.79;622065;228;64739;-61
2023/08/02 04:03:44;;;;;;;;;;;;;;;24.05;67.02;96217.31;622042;228;66929;-62
2023/08/02 04:06:12;;;;;;;;;;;;;;;24.04;67.22;96221.12;621992;228;64811;-61
2023/08/02 04:08:39;;;;;;;;;;;;;;;24.04;66.93;96218.43;621998;228;62539;-61
2023/08/02 04:11:07;;;;;;;;;;;;;;;24.03;65.85;96220.30;621983;228;64688;-61
2023/08/02 04:13:34;;;;;;;;;;;;;;;24.03;66.87;96220.30;623335;227;66756;-62
2023/08/02 04:16:02;;;;;;;;;;;;;;;24.04;66.25;96218.43;623486;227;65614;-62
2023/08/02 04:18:30;;;;;;;;;;;;;;;24.04;66.52;96223.80;623450;227;66923;-61
2023/08/02 04:20:59;;;;;;;;;;;;;;;24.04;66.46;96224.59;623436;227;66783;-61
2023/08/02 04:23:27;;;;;;;;;;;;;;;24.03;66.12;96220.30;623460;227;64723;-62
2023/08/02 04:25:54;;;;;;;;;;;;;;;24.04;66.62;96219.22;623386;227;66851;-62
2023/08/02 04:28:21;;;;;;;;;;;;;;;24.03;66.54;96222.98;623453;227;66798;-62
2023/08/02 04:30:50;;;;;;;;;;;;;;;24.03;66.50;96222.98;623437;227;63437;-62
2023/08/02 04:33:17;;;;;;;;;;;;;;;24.04;66.76;96229.17;623423;227;67318;-62
2023/08/02 04:35:45;;;;;;;;;;;;;;;24.03;66.66;96220.30;623417;227;67547;-62
2023/08/02 04:38:12;;;;;;;;;;;;;;;24.03;66.62;96217.62;623450;227;64721;-62
2023/08/02 04:40:40;;;;;;;;;;;;;;;24.02;65.98;96216.05;623424;227;67336;-62
2023/08/02 04:43:07;;;;;;;;;;;;;;;24.02;65.89;96221.41;623461;227;66978;-61
2023/08/02 04:45:35;;;;;;;;;;;;;;;24.03;66.77;96232.94;623445;227;64544;-62
2023/08/02 04:48:02;;;;;;;;;;;;;;;24.02;66.46;96232.14;623442;227;67184;-61
2023/08/02 04:50:31;;;;;;;;;;;;;;;24.03;67.07;96239.09;623447;227;66984;-61
2023/08/02 04:52:59;;;;;;;;;;;;;;;24.03;66.79;96238.30;623521;227;64615;-61
2023/08/02 04:55:27;;;;;;;;;;;;;;;24.01;66.56;96233.26;623449;227;66925;-62
2023/08/02 04:57:54;;;;;;;;;;;;;;;24.02;66.33;96236.73;623471;227;67082;-61
2023/08/02 05:00:22;;;;;;;;;;;;;;;24.02;66.27;96234.83;623429;227;64713;-62
2023/08/02 05:02:49;;;;;;;;;;;;;;;24.01;66.56;96235.95;623429;227;65118;-62
2023/08/02 05:05:17;;;;;;;;;;;;;;;24.02;66.72;96237.52;623493;227;67058;-62
2023/08/02 05:07:44;;;;;;;;;;;;;;;24.02;67.06;96237.52;623407;227;64407;-62
2023/08/02 05:10:12;;;;;;;;;;;;;;;24.02;66.51;96232.14;623415;227;67218;-62
2023/08/02 05:12:40;;;;;;;;;;;;;;;24.01;66.49;96235.95;623372;227;67049;-61
2023/08/02 05:15:08;;;;;;;;;;;;;;;24.01;66.35;96246.68;623454;227;62610;-61
2023/08/02 05:17:35;;;;;;;;;;;;;;;24.02;66.28;96244.78;623544;227;67269;-61
2023/08/02 05:20:03;;;;;;;;;;;;;;;24.02;66.56;96248.25;623486;227;67054;-61
2023/08/02 05:22:35;;;;;;;;;;;;;;;24.02;66.18;96252.83;623397;227;62711;-61
2023/08/02 05:25:00;;;;;;;;;;;;;;;24.00;65.79;96245.08;622996;227;64902;-61
2023/08/02 05:27:27;;;;;;;;;;;;;;;24.01;66.18;96241.31;623465;227;65045;-61
2023/08/02 05:29:54;;;;;;;;;;;;;;;24.01;66.39;96252.05;623432;227;62595;-62
2023/08/02 05:32:22;;;;;;;;;;;;;;;24.02;66.43;96252.83;623471;227;65000;-62
2023/08/02 05:34:49;;;;;;;;;;;;;;;24.01;66.64;96254.73;623439;227;64982;-62
2023/08/02 05:37:17;;;;;;;;;;;;;;;24.01;66.08;96260.09;623427;227;63487;-62
2023/08/02 05:39:45;;;;;;;;;;;;;;;24.02;66.28;96258.20;623462;227;64930;-62
2023/08/02 05:42:13;;;;;;;;;;;;;;;24.00;65.94;96261.18;623500;227;66610;-61
2023/08/02 05:44:40;;;;;;;;;;;;;;;24.01;66.87;96262.78;623460;227;64882;-62
2023/08/02 05:47:07;;;;;;;;;;;;;;;24.00;66.05;96253.13;623470;227;65024;-64
2023/08/02 05:49:35;;;;;;;;;;;;;;;24.00;66.08;96255.81;623366;227;65292;-64
2023/08/02 05:52:02;;;;;;;;;;;;;;;24.01;66.15;96257.41;623445;227;64752;-64
2023/08/02 05:54:30;;;;;;;;;;;;;;;24.01;66.10;96259.28;623342;227;67199;-65
2023/08/02 05:56:57;;;;;;;;;;;;;;;24.01;66.29;96257.41;622706;227;64832;-68
2023/08/02 05:59:27;;;;;;;;;;;;;;;24.01;66.18;96245.86;623392;227;64676;-66
2023/08/02 06:01:54;;;;;;;;;;;;;;;24.01;65.65;96251.23;623535;227;67327;-66
2023/08/02 06:04:21;;;;;;;;;;;;;;;24.01;66.18;96256.59;623511;227;67031;-66
2023/08/02 06:06:49;;;;;;;;;;;;;;;24.01;66.08;96262.78;623418;227;64722;-66
2023/08/02 06:09:16;;;;;;;;;;;;;;;24.02;66.41;96252.83;623613;227;64702;-66
2023/08/02 06:11:43;;;;;;;;;;;;;;;24.00;66.17;96245.08;623622;227;64934;-67
2023/08/02 06:14:11;;;;;;;;;;;;;;;24.01;65.51;96241.31;623796;226;62280;-66
2023/08/02 06:16:38;;;;;;;;;;;;;;;24.02;67.15;96248.25;623734;227;65341;-61
2023/08/02 06:19:06;;;;;;;;;;;;;;;24.00;64.92;96245.08;623772;227;64955;-61
2023/08/02 06:21:34;;;;;;;;;;;;;;;23.99;64.22;96250.77;623816;227;63495;-61
2023/08/02 06:24:01;;;;;;;;;;;;;;;24.00;63.90;96252.34;623808;227;64946;-60
2023/08/02 06:26:29;;;;;;;;;;;;;;;24.01;64.37;96246.68;623765;227;65506;-61
2023/08/02 06:28:56;;;;;;;;;;;;;;;24.02;65.47;96253.62;623715;227;62744;-61
2023/08/02 06:31:24;;;;;;;;;;;;;;;24.03;64.69;96247.14;623779;227;67396;-61
2023/08/02 06:33:51;;;;;;;;;;;;;;;24.03;64.46;96255.19;623808;227;67032;-61
2023/08/02 06:36:19;;;;;;;;;;;;;;;24.03;64.89;96249.83;623803;227;62768;-62
2023/08/02 06:38:47;;;;;;;;;;;;;;;24.04;66.07;96251.42;623720;227;64947;-62
2023/08/02 06:41:15;;;;;;;;;;;;;;;24.04;65.75;96251.42;623740;227;64904;-60
2023/08/02 06:43:43;;;;;;;;;;;;;;;24.04;65.55;96254.11;623757;227;62813;-60
2023/08/02 06:46:10;;;;;;;;;;;;;;;24.05;65.21;96247.62;623749;227;65028;-60
2023/08/02 06:48:38;;;;;;;;;;;;;;;24.04;64.33;96251.42;623837;227;66981;-60
2023/08/02 06:51:05;;;;;;;;;;;;;;;24.06;62.84;96253.78;623770;227;64775;-62
2023/08/02 06:53:33;;;;;;;;;;;;;;;24.06;62.92;96257.28;623739;227;67976;-62
2023/08/02 06:56:02;;;;;;;;;;;;;;;24.09;63.88;96258.53;623701;227;64447;-60
2023/08/02 06:58:30;;;;;;;;;;;;;;;24.09;63.71;96255.84;623494;227;62787;-62
2023/08/02 07:00:58;;;;;;;;;;;;;;;24.10;63.14;96260.92;623756;227;67199;-61
2023/08/02 07:03:25;;;;;;;;;;;;;;;24.11;62.85;96259.02;623773;227;64893;-61
2023/08/02 07:05:53;;;;;;;;;;;;;;;24.11;62.84;96261.70;623800;227;64791;-61
2023/08/02 07:08:20;;;;;;;;;;;;;;;24.12;62.91;96269.47;623761;227;64538;-61
2023/08/02 07:10:48;;;;;;;;;;;;;;;24.12;63.02;96258.73;623727;227;67370;-61
2023/08/02 07:13:15;;;;;;;;;;;;;;;24.14;64.52;96259.22;623754;227;64728;-61
2023/08/02 07:15:43;;;;;;;;;;;;;;;24.14;64.08;96256.53;623802;227;65021;-63
2023/08/02 07:18:11;;;;;;;;;;;;;;;24.14;63.99;96258.40;623762;227;67094;-61
2023/08/02 07:20:38;;;;;;;;;;;;;;;24.13;63.90;96257.61;623761;227;64609;-65
2023/08/02 07:23:06;;;;;;;;;;;;;;;24.14;65.00;96261.08;623678;227;67005;-67
2023/08/02 07:25:33;;;;;;;;;;;;;;;24.17;63.66;96259.67;623791;227;67133;-65
2023/08/02 07:28:00;;;;;;;;;;;;;;;24.19;64.16;96247.53;623775;227;64835;-65
2023/08/02 07:30:28;;;;;;;;;;;;;;;24.19;63.57;96250.21;623766;227;67507;-67
2023/08/02 07:32:56;;;;;;;;;;;;;;;24.18;63.65;96258.59;623812;227;67024;-66
2023/08/02 07:35:23;;;;;;;;;;;;;;;24.18;63.67;96255.91;623722;227;64828;-66
2023/08/02 07:37:50;;;;;;;;;;;;;;;24.18;64.14;96254.02;624541;225;67307;-66
2023/08/02 07:40:23;;;;;;;;;;;;;;;24.19;64.04;96254.80;625154;226;64795;-66
2023/08/02 07:42:50;;;;;;;;;;;;;;;24.19;64.85;96252.90;624096;227;63536;-66
2023/08/02 07:45:17;;;;;;;;;;;;;;;24.19;64.79;96258.27;624227;227;67313;-65
2023/08/02 07:47:45;;;;;;;;;;;;;;;24.18;63.63;96248.64;625129;225;65061;-66
2023/08/02 07:50:12;;;;;;;;;;;;;;;24.20;63.67;96256.37;628725;225;62662;-65
2023/08/02 07:52:41;;;;;;;;;;;;;;;24.22;63.66;96251.48;628690;225;44637;-66
2023/08/02 07:55:09;;;;;;;;;;;;;;;24.21;63.60;96256.07;628717;225;64923;-69
2023/08/02 07:57:37;;;;;;;;;;;;;;;24.23;63.68;96255.78;626416;225;62708;-66
2023/08/02 08:00:05;;;;;;;;;;;;;;;24.21;63.62;96250.70;623070;226;67232;-66
2023/08/02 08:02:34;;;;;;;;;;;;;;;24.23;63.82;96253.09;619847;228;46805;-68
2023/08/02 08:05:03;;;;;;;;;;;;;;;24.24;63.55;96257.34;620766;228;64895;-65
2023/08/02 08:07:30;;;;;;;;;;;;;;;24.23;63.51;96256.56;620881;227;64968;-65
2023/08/02 08:09:58;;;;;;;;;;;;;;;24.24;63.61;96255.45;620897;228;66312;-68
2023/08/02 08:12:25;;;;;;;;;;;;;;;24.25;63.68;96261.60;618019;228;63425;-65
2023/08/02 08:14:53;;;;;;;;;;;;;;;24.25;63.65;96264.28;615366;230;64599;-77
2023/08/02 08:17:20;;;;;;;;;;;;;;;24.25;63.66;96270.44;615252;230;64777;-76
2023/08/02 08:19:49;;;;;;;;;;;;;;;24.25;63.96;96265.08;615363;230;64877;-72
2023/08/02 08:22:18;;;;;;;;;;;;;;;24.25;63.74;96266.97;615329;230;66981;-72
2023/08/02 08:24:45;;;;;;;;;;;;;;;24.25;63.78;96272.34;615290;230;64541;-74
2023/08/02 08:27:13;;;;;;;;;;;;;;;24.25;63.75;96267.76;615311;230;62492;-74
2023/08/02 08:29:40;;;;;;;;;;;;;;;24.25;63.78;96272.34;615347;230;66664;-74
2023/08/02 08:32:08;;;;;;;;;;;;;;;24.25;64.19;96275.03;615182;230;66874;-75
2023/08/02 08:34:35;;;;;;;;;;;;;;;24.25;64.43;96266.97;615282;230;64539;-74
2023/08/02 08:37:03;;;;;;;;;;;;;;;24.25;64.40;96269.66;615282;230;64575;-74
2023/08/02 08:39:30;;;;;;;;;;;;;;;24.25;65.16;96267.76;615193;230;64812;-73
2023/08/02 08:41:58;;;;;;;;;;;;;;;24.24;64.58;96263.50;615286;230;62525;-73
2023/08/02 08:44:26;;;;;;;;;;;;;;;24.25;64.61;96272.34;615336;230;67269;-73
2023/08/02 08:46:59;;;;;;;;;;;;;;;24.25;64.37;96266.97;615269;230;67078;-73
2023/08/02 08:49:23;;;;;;;;;;;;;;;24.25;63.93;96267.76;615125;230;64587;-74
2023/08/02 08:51:52;;;;;;;;;;;;;;;24.25;63.44;96270.44;615284;230;67024;-74
2023/08/02 08:54:21;;;;;;;;;;;;;;;24.26;64.25;96273.95;615266;230;66868;-69
2023/08/02 08:56:48;;;;;;;;;;;;;;;24.25;64.11;96270.44;615140;229;64798;-68
2023/08/02 08:59:16;;;;;;;;;;;;;;;24.26;63.52;96268.58;615359;230;64852;-70
2023/08/02 09:01:45;;;;;;;;;;;;;;;24.27;63.09;96280.89;615251;230;65000;-71
2023/08/02 09:04:12;;;;;;;;;;;;;;;24.27;63.43;96281.67;615287;230;64727;-73
2023/08/02 09:06:40;;;;;;;;;;;;;;;24.28;62.70;96287.83;615311;230;67315;-70
2023/08/02 09:09:07;;;;;;;;;;;;;;;24.27;62.49;96289.73;615258;230;67215;-66
2023/08/02 09:11:35;;;;;;;;;;;;;;;24.28;62.39;96302.07;615276;229;64557;-70
2023/08/02 09:14:11;;;;;;;;;;;;;;;24.31;61.88;96297.98;615345;230;67215;-68
2023/08/02 09:16:40;;;;;;;;;;;;;;;24.30;62.12;96307.11;615138;230;64917;-67
2023/08/02 09:19:09;;;;;;;;;;;;;;;24.29;62.24;96313.59;610515;230;63505;-62
2023/08/02 09:21:36;;;;;;;;;;;;;;;24.29;62.08;96321.66;614696;230;64812;-61
2023/08/02 09:24:04;;;;;;;;;;;;;;;24.28;61.90;96322.73;615359;230;64796;-61
2023/08/02 09:26:31;;;;;;;;;;;;;;;24.28;61.80;96323.55;615330;230;62576;-61
2023/08/02 09:29:06;;;;;;;;;;;;;;;24.27;61.63;96327.31;615286;230;65873;-61
2023/08/02 09:31:34;;;;;;;;;;;;;;;24.28;61.49;96336.16;615293;230;67461;-62
2023/08/02 09:34:02;;;;;;;;;;;;;;;24.28;61.38;96331.61;615334;230;64698;-62
2023/08/02 09:36:30;;;;;;;;;;;;;;;24.29;61.29;96340.45;615244;230;67173;-62
2023/08/02 09:39:01;;;;;;;;;;;;;;;24.28;61.27;96330.79;615407;230;67553;-62
2023/08/02 09:41:29;;;;;;;;;;;;;;;24.28;61.27;96326.23;615329;230;64698;-62
2023/08/02 09:43:56;;;;;;;;;;;;;;;24.28;61.27;96330.79;615301;230;67180;-62
2023/08/02 09:46:26;;;;;;;;;;;;;;;24.28;61.22;96326.23;615343;230;67050;-62
2023/08/02 09:48:54;;;;;;;;;;;;;;;24.28;61.16;96330.79;615320;230;62596;-62
2023/08/02 09:51:21;;;;;;;;;;;;;;;24.29;61.10;96337.77;615250;230;65052;-61
2023/08/02 09:53:50;;;;;;;;;;;;;;;24.29;61.04;96335.08;615335;230;65057;-69
2023/08/02 09:56:18;;;;;;;;;;;;;;;24.28;61.00;96328.92;614655;230;62649;-69
2023/08/02 09:58:46;;;;;;;;;;;;;;;24.29;60.97;96321.66;615297;229;65019;-69
2023/08/02 10:01:13;;;;;;;;;;;;;;;24.29;61.00;96327.81;615304;230;65047;-71
2023/08/02 10:03:41;;;;;;;;;;;;;;;24.29;60.87;96327.02;615319;230;62642;-72
2023/08/02 10:06:10;;;;;;;;;;;;;;;24.29;60.88;96327.02;615262;230;65060;-62
2023/08/02 10:08:38;;;;;;;;;;;;;;;24.30;61.06;96333.97;615333;230;67174;-71
2023/08/02 10:11:07;;;;;;;;;;;;;;;24.34;60.72;96325.00;615282;230;65124;-70
2023/08/02 10:13:36;;;;;;;;;;;;;;;24.32;61.24;96326.41;617274;229;67247;-70
2023/08/02 10:16:04;;;;;;;;;;;;;;;24.31;61.24;96324.83;617321;230;65770;-70
2023/08/02 10:18:32;;;;;;;;;;;;;;;24.30;61.25;96317.86;617348;230;64741;-69
2023/08/02 10:21:01;;;;;;;;;;;;;;;24.30;61.23;96324.02;617319;230;67066;-69
2023/08/02 10:23:29;;;;;;;;;;;;;;;24.28;61.27;96318.19;617362;230;66919;-69
2023/08/02 10:25:56;;;;;;;;;;;;;;;24.29;61.88;96325.13;617274;230;62873;-70
2023/08/02 10:28:24;;;;;;;;;;;;;;;24.29;61.79;96316.28;617341;230;67252;-71
2023/08/02 10:30:52;;;;;;;;;;;;;;;24.29;62.00;96319.75;617393;230;64790;-70
2023/08/02 10:33:20;;;;;;;;;;;;;;;24.29;61.93;96321.66;617257;230;63318;-70
2023/08/02 10:35:56;;;;;;;;;;;;;;;24.29;61.86;96313.59;617386;230;67257;-70
2023/08/02 10:38:28;;;;;;;;;;;;;;;24.29;62.19;96321.66;617367;230;66828;-71
2023/08/02 10:41:05;;;;;;;;;;;;;;;24.29;62.50;96321.66;617865;227;64664;-70
2023/08/02 10:43:33;;;;;;;;;;;;;;;24.28;62.29;96315.50;618275;227;67086;-69
2023/08/02 10:46:17;;;;;;;;;;;;;;;24.28;62.08;96314.68;617314;230;67170;-70
2023/08/02 10:48:44;;;;;;;;;;;;;;;24.27;61.91;96319.27;619087;227;64922;-71
2023/08/02 10:51:34;;;;;;;;;;;;;;;24.28;61.94;96322.73;621962;227;64904;-71
2023/08/02 10:54:03;;;;;;;;;;;;;;;24.28;62.11;96317.36;622110;227;64788;-70
2023/08/02 10:56:30;;;;;;;;;;;;;;;24.28;62.27;96314.68;617821;227;62461;-71
2023/08/02 10:58:58;;;;;;;;;;;;;;;24.28;62.37;96323.55;622241;228;67057;-71
2023/08/02 11:01:25;;;;;;;;;;;;;;;24.28;62.19;96320.87;622184;228;66931;-71
2023/08/02 11:03:54;;;;;;;;;;;;;;;24.28;62.16;96320.05;622185;228;64786;-71
2023/08/02 11:06:25;;;;;;;;;;;;;;;24.35;61.95;96321.20;621427;227;66965;-72
2023/08/02 11:08:53;;;;;;;;;;;;;;;24.35;61.97;96323.88;622506;227;67052;-71
2023/08/02 11:11:31;;;;;;;;;;;;;;;24.35;61.42;96331.16;621459;226;65177;-71
2023/08/02 11:13:59;;;;;;;;;;;;;;;24.36;61.43;96335.41;623143;226;67491;-71
2023/08/02 11:16:27;;;;;;;;;;;;;;;24.35;61.10;96331.16;626075;226;64935;-73
2023/08/02 11:18:54;;;;;;;;;;;;;;;24.36;61.00;96335.41;626133;226;64729;-73
2023/08/02 11:21:24;;;;;;;;;;;;;;;24.37;60.77;96342.38;626096;226;64976;-73
2023/08/02 11:23:53;;;;;;;;;;;;;;;24.36;60.50;96348.84;626076;226;64946;-72
2023/08/02 11:26:21;;;;;;;;;;;;;;;24.36;60.15;96338.91;625892;226;64829;-72
2023/08/02 11:28:52;;;;;;;;;;;;;;;24.38;59.88;96349.33;626200;226;67135;-71
2023/08/02 11:31:19;;;;;;;;;;;;;;;24.37;59.69;96345.07;626011;226;67073;-73
2023/08/02 11:33:47;;;;;;;;;;;;;;;24.38;59.57;96346.64;623866;226;64787;-71
2023/08/02 11:36:14;;;;;;;;;;;;;;;24.38;59.35;96343.95;620073;226;67017;-71
2023/08/02 11:38:42;;;;;;;;;;;;;;;24.38;59.24;96346.64;621457;226;67193;-71
2023/08/02 11:41:17;;;;;;;;;;;;;;;24.38;59.04;96342.06;621970;225;64613;-71
2023/08/02 11:43:45;;;;;;;;;;;;;;;24.40;58.84;96349.03;620977;226;64928;-73
2023/08/02 11:46:13;;;;;;;;;;;;;;;24.40;58.73;96349.03;620235;225;67133;-72
2023/08/02 11:48:40;;;;;;;;;;;;;;;24.41;58.73;96342.55;623088;227;64655;-72
2023/08/02 11:51:09;;;;;;;;;;;;;;;24.40;58.55;96352.50;625074;227;64913;-72
2023/08/02 11:53:38;;;;;;;;;;;;;;;24.40;58.48;96355.19;623980;227;64750;-72
2023/08/02 11:56:06;;;;;;;;;;;;;;;24.41;58.35;96345.23;620893;227;62486;-72
2023/08/02 11:58:34;;;;;;;;;;;;;;;24.42;58.29;96344.13;618159;229;65004;-72
2023/08/02 12:01:01;;;;;;;;;;;;;;;24.41;58.26;96335.28;621672;226;65254;-72
2023/08/02 12:03:28;;;;;;;;;;;;;;;24.42;58.19;96339.56;623871;226;64643;-72
2023/08/02 12:06:00;;;;;;;;;;;;;;;24.43;58.17;96332.30;622922;226;67582;-71
2023/08/02 12:08:28;;;;;;;;;;;;;;;24.44;58.02;96340.06;622788;226;66971;-70
2023/08/02 12:10:55;;;;;;;;;;;;;;;24.43;57.87;96333.08;623990;226;64843;-71
2023/08/02 12:13:23;;;;;;;;;;;;;;;24.43;57.85;96327.72;618502;225;67259;-71
2023/08/02 12:16:10;;;;;;;;;;;;;;;24.44;57.92;96329.31;620360;225;64488;-72
2023/08/02 12:18:36;;;;;;;;;;;;;;;24.45;58.77;96330.92;620919;225;64696;-69
2023/08/02 12:21:16;;;;;;;;;;;;;;;24.45;58.36;96319.39;623274;227;66638;-71
2023/08/02 12:23:43;;;;;;;;;;;;;;;24.44;58.74;96323.94;624483;227;64574;-65
2023/08/02 12:26:11;;;;;;;;;;;;;;;24.42;57.88;96326.14;624475;227;64821;-65
2023/08/02 12:28:45;;;;;;;;;;;;;;;24.42;57.86;96320.77;624409;227;67207;-66
2023/08/02 12:31:13;;;;;;;;;;;;;;;24.42;57.94;96319.95;624450;227;66796;-65
2023/08/02 12:33:40;;;;;;;;;;;;;;;24.42;58.01;96323.45;624387;227;62650;-65
2023/08/02 12:36:08;;;;;;;;;;;;;;;24.43;58.09;96321.55;624460;227;64733;-67
2023/08/02 12:38:35;;;;;;;;;;;;;;;24.43;58.19;96325.03;624522;227;64643;-67
2023/08/02 12:41:07;;;;;;;;;;;;;;;24.43;58.24;96324.24;624313;227;64394;-67
2023/08/02 12:43:34;;;;;;;;;;;;;;;24.42;58.21;96323.45;624481;227;67312;-66
2023/08/02 12:46:02;;;;;;;;;;;;;;;24.42;58.25;96323.45;624383;227;65032;-66
2023/08/02 12:48:29;;;;;;;;;;;;;;;24.42;58.24;96315.39;624434;227;64734;-67
2023/08/02 12:50:57;;;;;;;;;;;;;;;24.43;58.26;96310.81;624429;227;67234;-66
2023/08/02 12:53:25;;;;;;;;;;;;;;;24.43;58.21;96305.44;624412;227;66974;-67